Time;durP1;ratioP1;P1;durP2;ratioP2;P2;SDS_P1;SDS_P2;PMS_P1;PMS_P2;Temp;Humidity;BMP_temperature;BMP_pressure;BME280_temperature;BME280_humidity;BME280_pressure;Samples;Min_cycle;Max_cycle;Signal;HPM_P1;HPM_P2
2022/03/11 00:00:14;;;;;;;93.10;30.80;;;;;;;-6.42;59.59;100813.52;4037683;87;21189;-78
2022/03/11 00:06:19;;;;;;;91.70;31.13;;;;;;;-6.52;60.66;100813.52;4044370;86;21081;-78
2022/03/11 00:12:21;;;;;;;84.47;27.93;;;;;;;-6.41;60.37;100814.62;4041297;86;21703;-78
2022/03/11 00:18:22;;;;;;;81.23;26.93;;;;;;;-6.43;60.76;100810.02;4040789;86;22036;-78
2022/03/11 00:24:23;;;;;;;67.17;24.70;;;;;;;-6.34;60.89;100806.56;4041854;86;21878;-78
2022/03/11 00:30:25;;;;;;;74.37;27.70;;;;;;;-6.32;61.01;100801.80;4040121;86;21054;-79
2022/03/11 00:36:26;;;;;;;99.63;30.47;;;;;;;-6.32;60.92;100809.30;4039556;86;21511;-78
2022/03/11 00:42:28;;;;;;;81.20;28.77;;;;;;;-6.47;60.40;100804.85;4044729;86;21042;-78
2022/03/11 00:48:29;;;;;;;112.30;37.77;;;;;;;-6.77;60.65;100799.41;4077182;86;21049;-78
2022/03/11 00:54:30;;;;;;;114.67;38.07;;;;;;;-6.93;61.16;100797.80;4082996;86;20989;-78
2022/03/11 01:00:32;;;;;;;91.33;31.17;;;;;;;-7.05;61.20;100797.71;4082427;85;21013;-78
2022/03/11 01:06:34;;;;;;;85.73;29.97;;;;;;;-7.10;61.61;100795.39;4081711;86;21955;-78
2022/03/11 01:12:37;;;;;;;92.33;32.53;;;;;;;-7.12;61.88;100803.59;4084623;86;21088;-79
2022/03/11 01:18:39;;;;;;;86.50;31.43;;;;;;;-7.14;62.10;100807.52;4080420;85;21047;-78
2022/03/11 01:24:40;;;;;;;89.70;33.40;;;;;;;-7.20;62.07;100801.70;4076943;85;21663;-79
2022/03/11 01:30:42;;;;;;;70.60;25.97;;;;;;;-7.21;62.50;100796.91;4079028;85;21083;-78
2022/03/11 01:36:43;;;;;;;99.03;35.33;;;;;;;-7.16;62.58;100787.77;4078431;85;22308;-79
2022/03/11 01:42:44;;;;;;;78.43;30.77;;;;;;;-7.11;62.87;100789.23;4083452;85;21059;-78
2022/03/11 01:48:46;;;;;;;61.70;26.03;;;;;;;-7.09;63.04;100790.35;4050137;86;21050;-79
2022/03/11 01:54:50;;;;;;;81.13;28.43;;;;;;;-7.08;63.28;100788.01;4039389;86;21440;-79
2022/03/11 02:00:51;;;;;;;76.20;29.33;;;;;;;-7.10;63.40;100790.89;4038977;86;21552;-79
2022/03/11 02:06:54;;;;;;;74.70;26.23;;;;;;;-7.12;63.61;100790.78;4044990;86;21911;-79
2022/03/11 02:13:01;;;;;;;72.23;27.37;;;;;;;-7.16;63.71;100793.09;4043834;86;20990;-81
2022/03/11 02:19:00;;;;;;;58.97;19.90;;;;;;;-7.19;63.79;100800.18;4041552;86;21080;-80
2022/03/11 02:25:06;;;;;;;69.17;25.27;;;;;;;-7.18;64.03;100804.97;4038636;86;21029;-79
2022/03/11 02:31:09;;;;;;;62.83;24.63;;;;;;;-7.22;64.23;100803.78;4039096;87;21044;-79
2022/03/11 02:37:10;;;;;;;59.33;23.90;;;;;;;-7.26;64.29;100804.72;4041452;86;21057;-79
2022/03/11 02:43:12;;;;;;;72.50;23.43;;;;;;;-7.29;64.64;100806.48;4041055;87;21115;-79
2022/03/11 02:49:14;;;;;;;68.73;25.17;;;;;;;-7.28;64.85;100813.42;4086142;86;21126;-79
2022/03/11 02:55:26;;;;;;;63.53;24.20;;;;;;;-7.27;64.96;100808.42;4098669;85;21525;-79
2022/03/11 03:01:27;;;;;;;68.87;27.37;;;;;;;-7.30;65.13;100816.02;4096030;85;21104;-79
2022/03/11 03:07:30;;;;;;;71.80;24.20;;;;;;;-7.37;65.43;100806.73;4097398;85;21065;-80
2022/03/11 03:13:33;;;;;;;68.13;24.27;;;;;;;-7.35;65.97;100811.84;4092430;85;21010;-80
2022/03/11 03:26:38;;;;;;;69.17;25.20;;;;;;;-7.35;66.24;100808.68;4102648;87;21021;-79
2022/03/11 03:40:19;;;;;;;68.93;25.67;;;;;;;-7.55;66.49;100804.52;4081018;86;21103;-80
2022/03/11 03:46:20;;;;;;;73.33;27.07;;;;;;;-7.63;66.67;100806.91;4071999;85;21992;-80
2022/03/11 03:52:22;;;;;;;73.67;28.93;;;;;;;-7.66;66.84;100798.54;4052072;86;21030;-79
2022/03/11 03:58:24;;;;;;;80.70;29.60;;;;;;;-7.72;67.22;100794.88;4055953;86;21975;-80
2022/03/11 04:04:26;;;;;;;69.93;26.83;;;;;;;-7.83;67.76;100795.58;4058674;86;21980;-79
2022/03/11 04:10:27;;;;;;;73.67;27.73;;;;;;;-7.88;67.92;100807.86;4054480;86;21970;-79
2022/03/11 04:16:28;;;;;;;70.17;28.53;;;;;;;-7.94;67.89;100810.86;4052128;87;22263;-79
2022/03/11 04:22:29;;;;;;;74.97;29.27;;;;;;;-7.99;68.00;100821.30;4049560;86;21036;-80
2022/03/11 04:28:31;;;;;;;76.30;28.53;;;;;;;-7.98;68.12;100818.94;4057691;86;21045;-79
2022/03/11 04:34:32;;;;;;;79.83;27.93;;;;;;;-7.98;68.23;100813.63;4050671;86;21041;-79
2022/03/11 04:40:34;;;;;;;88.13;31.83;;;;;;;-7.95;68.21;100816.39;4054242;85;21057;-79
2022/03/11 04:46:36;;;;;;;89.93;37.40;;;;;;;-8.00;68.33;100816.20;4048631;86;21076;-79
2022/03/11 04:52:37;;;;;;;87.67;35.47;;;;;;;-8.05;68.56;100821.33;4043205;86;21082;-79
2022/03/11 04:58:38;;;;;;;67.70;29.93;;;;;;;-8.11;68.59;100814.48;4042576;86;21053;-79
2022/03/11 05:04:40;;;;;;;79.10;29.83;;;;;;;-8.14;68.66;100822.06;4040647;86;21956;-79
2022/03/11 05:10:41;;;;;;;77.90;29.17;;;;;;;-8.16;68.91;100817.48;4041974;86;21625;-79
2022/03/11 05:16:42;;;;;;;68.83;28.00;;;;;;;-8.18;68.85;100813.72;4038835;86;21080;-79
2022/03/11 05:22:45;;;;;;;74.37;28.07;;;;;;;-8.21;68.99;100815.46;4039513;86;21045;-79
2022/03/11 05:28:46;;;;;;;72.60;28.27;;;;;;;-8.21;69.12;100823.44;4042082;87;21697;-79
2022/03/11 05:34:48;;;;;;;79.80;28.80;;;;;;;-8.18;69.26;100829.66;4039701;87;21046;-79
2022/03/11 05:40:49;;;;;;;86.63;31.20;;;;;;;-8.07;69.58;100831.34;4037374;87;21046;-79
2022/03/11 05:46:52;;;;;;;81.30;28.27;;;;;;;-7.92;69.79;100829.25;4042780;87;21132;-80
2022/03/11 05:52:53;;;;;;;67.80;25.97;;;;;;;-7.80;70.23;100843.51;4053604;86;21001;-80
2022/03/11 05:58:54;;;;;;;68.73;26.23;;;;;;;-7.68;70.50;100847.13;4053187;86;21588;-79
2022/03/11 06:04:57;;;;;;;75.70;27.77;;;;;;;-7.56;70.55;100852.09;4054738;86;22263;-79
2022/03/11 06:38:32;;;;;;;62.13;26.33;;;;;;;-5.14;71.27;100855.25;4051000;86;20977;-81
2022/03/11 06:52:02;;;;;;;65.60;25.47;;;;;;;-4.20;70.92;100860.47;4051247;86;21446;-81
2022/03/11 07:05:31;;;;;;;66.30;24.40;;;;;;;-3.55;70.67;100870.70;4050862;88;21004;-80
2022/03/11 07:11:33;;;;;;;65.33;24.20;;;;;;;-3.47;70.27;100871.66;4033651;86;21017;-81
2022/03/11 07:17:35;;;;;;;57.60;24.60;;;;;;;-3.28;69.90;100881.14;4034261;88;20990;-80
2022/03/11 07:23:38;;;;;;;69.27;27.27;;;;;;;-2.87;70.06;100875.16;4033490;87;21021;-81
2022/03/11 07:29:48;;;;;;;68.07;27.17;;;;;;;-2.61;69.71;100872.67;4036178;88;21070;-82
2022/03/11 07:35:52;;;;;;;64.70;26.53;;;;;;;-2.31;69.42;100870.98;4036089;87;21058;-81
2022/03/11 07:41:53;;;;;;;61.97;24.57;;;;;;;-2.14;68.79;100857.02;4034139;87;21093;-81
2022/03/11 07:48:09;;;;;;;53.23;23.90;;;;;;;-1.69;68.73;100858.95;4032638;88;21073;-82
2022/03/11 08:01:52;;;;;;;49.10;20.25;;;;;;;-0.99;66.32;100858.94;4044615;87;21032;-82
2022/03/11 08:08:17;;;;;;;42.83;17.67;;;;;;;-0.60;66.48;100869.26;4042728;87;21173;-82
2022/03/11 08:14:18;;;;;;;34.40;15.75;;;;;;;-0.22;63.88;100862.26;4047965;86;21073;-82
2022/03/11 08:20:21;;;;;;;36.17;16.05;;;;;;;0.20;62.59;100853.35;4047232;86;21079;-82
2022/03/11 08:26:23;;;;;;;28.80;12.60;;;;;;;0.54;61.17;100862.12;4043697;86;21062;-82
2022/03/11 08:32:24;;;;;;;27.93;11.93;;;;;;;0.54;61.17;100862.12;4046116;86;21022;-82
2022/03/11 08:38:25;;;;;;;28.95;13.38;;;;;;;0.63;59.46;100860.53;4049340;86;20998;-81
2022/03/11 08:44:26;;;;;;;27.32;12.95;;;;;;;0.52;57.31;100841.36;4049142;86;21033;-81
2022/03/11 08:50:28;;;;;;;26.82;12.47;;;;;;;0.85;58.96;100867.05;4049503;86;21078;-81
2022/03/11 08:56:29;;;;;;;32.70;13.20;;;;;;;1.28;57.29;100874.17;4047867;86;21070;-82
2022/03/11 09:02:31;;;;;;;21.00;10.35;;;;;;;1.85;57.65;100856.87;4049100;87;21972;-83
2022/03/11 09:08:32;;;;;;;21.25;10.90;;;;;;;2.73;56.47;100858.70;4046458;86;21054;-82
2022/03/11 09:14:34;;;;;;;20.23;9.68;;;;;;;3.38;52.48;100845.30;4049435;86;21042;-83
2022/03/11 09:20:35;;;;;;;19.62;10.32;;;;;;;3.70;55.27;100849.61;4049050;86;21137;-83
2022/03/11 09:26:36;;;;;;;17.52;9.40;;;;;;;3.84;49.42;100836.48;4046682;86;21047;-85
2022/03/11 09:32:38;;;;;;;18.27;9.05;;;;;;;3.90;48.44;100839.39;4049234;86;21057;-86
2022/03/11 09:38:39;;;;;;;15.10;7.75;;;;;;;4.20;48.76;100837.72;4050187;86;21062;-84
2022/03/11 09:44:53;;;;;;;15.18;8.28;;;;;;;4.15;45.30;100847.26;4037052;87;21077;-85
2022/03/11 09:50:55;;;;;;;16.40;8.38;;;;;;;4.27;45.49;100842.27;4035588;87;21137;-87
2022/03/11 09:56:57;;;;;;;18.07;9.88;;;;;;;4.52;43.20;100843.31;4034341;87;21104;-88
2022/03/11 10:02:58;;;;;;;20.90;10.25;;;;;;;4.82;41.97;100836.11;4035271;86;21160;-85
2022/03/11 10:09:00;;;;;;;17.00;10.28;;;;;;;4.74;40.89;100839.47;4036852;87;21099;-89
2022/03/11 10:15:04;;;;;;;17.65;9.38;;;;;;;5.06;42.42;100846.89;4035762;87;21018;-86
2022/03/11 10:21:08;;;;;;;16.07;8.25;;;;;;;5.40;40.31;100835.25;4035412;87;21045;-89
2022/03/11 10:27:09;;;;;;;17.48;8.28;;;;;;;5.32;40.62;100831.85;4037282;87;21105;-87
2022/03/11 10:33:16;;;;;;;17.70;9.23;;;;;;;5.77;39.44;100840.59;4034262;87;21062;-89
2022/03/11 10:46:48;;;;;;;15.72;8.53;;;;;;;6.04;40.08;100814.84;4046756;88;21074;-88
2022/03/11 11:00:00;;;;;;;13.83;7.70;;;;;;;5.73;36.28;100813.73;3941093;89;21254;-87
2022/03/11 11:06:19;;;;;;;13.83;7.35;;;;;;;6.19;35.30;100813.18;3958237;89;21079;-86
2022/03/11 11:12:20;;;;;;;14.80;8.55;;;;;;;6.10;36.00;100812.82;3891307;90;22082;-87
2022/03/11 11:25:21;;;;;;;16.97;9.20;;;;;;;6.47;36.83;100803.66;4033399;88;21024;-88
2022/03/11 11:31:32;;;;;;;16.00;7.70;;;;;;;6.65;35.90;100796.72;4038422;87;21082;-89
2022/03/11 11:52:33;;;;;;;15.28;7.78;;;;;;;6.51;34.83;100786.96;3789462;93;21266;-88
2022/03/11 12:20:34;;;;;;;13.30;6.95;;;;;;;5.06;33.10;100757.89;3742578;94;21155;-87
2022/03/11 12:26:36;;;;;;;12.23;6.60;;;;;;;4.91;32.95;100758.92;3774814;92;21166;-87
2022/03/11 13:06:38;;;;;;;8.38;4.97;;;;;;;3.75;30.73;100725.79;4043229;88;21093;-86
2022/03/11 13:12:41;;;;;;;10.60;5.28;;;;;;;3.66;30.26;100721.29;4046809;88;20994;-85
2022/03/11 13:25:31;;;;;;;7.67;3.73;;;;;;;3.55;30.89;100701.65;3984353;88;21550;-85
2022/03/11 13:31:54;;;;;;;9.43;4.55;;;;;;;3.48;29.63;100698.46;3928011;89;22173;-85
2022/03/11 13:37:55;;;;;;;13.28;5.12;;;;;;;3.48;30.79;100697.11;3945745;90;21194;-87
2022/03/11 13:51:06;;;;;;;12.50;4.85;;;;;;;3.58;30.43;100678.05;3940323;89;21151;-86
2022/03/11 14:04:20;;;;;;;;;;;;;;;3.17;30.77;100668.20;4056800;86;21616;-86
2022/03/11 14:10:35;;;;;;;9.13;4.95;;;;;;;3.13;30.36;100671.77;4038136;86;20174;-84
2022/03/11 14:16:54;;;;;;;8.83;4.25;;;;;;;2.91;30.63;100665.45;4043807;87;21043;-86
2022/03/11 14:22:56;;;;;;;13.03;5.90;;;;;;;2.91;30.25;100664.11;4058574;87;21010;-85
2022/03/11 14:28:59;;;;;;;11.95;4.90;;;;;;;2.95;30.58;100650.29;4055625;86;21016;-85
2022/03/11 14:35:00;;;;;;;9.50;4.50;;;;;;;3.00;30.37;100653.49;4056780;86;21106;-84
2022/03/11 14:41:01;;;;;;;11.45;5.22;;;;;;;3.02;30.00;100649.97;4052550;86;21056;-85
2022/03/11 14:47:03;;;;;;;12.25;5.97;;;;;;;3.04;29.45;100645.87;4049057;86;21069;-85
2022/03/11 14:53:05;;;;;;;17.37;5.90;;;;;;;2.94;29.91;100637.84;4048968;86;21060;-86
2022/03/11 14:59:06;;;;;;;14.10;5.87;;;;;;;2.90;30.72;100634.10;4064993;86;21153;-86
2022/03/11 15:05:09;;;;;;;11.33;5.10;;;;;;;2.89;30.92;100628.98;4062326;86;21033;-86
2022/03/11 15:11:11;;;;;;;15.38;6.30;;;;;;;2.88;31.10;100625.45;4064403;86;21038;-85
2022/03/11 15:17:12;;;;;;;10.72;4.67;;;;;;;2.78;30.74;100623.41;4060678;86;21093;-86
2022/03/11 15:23:13;;;;;;;8.25;3.90;;;;;;;2.55;30.63;100622.23;4064380;86;21110;-86
2022/03/11 15:29:15;;;;;;;13.72;4.80;;;;;;;2.32;30.43;100617.55;4065382;86;21112;-85
2022/03/11 15:35:16;;;;;;;10.45;5.03;;;;;;;2.14;30.42;100612.02;4064114;86;21014;-86
2022/03/11 15:41:18;;;;;;;11.80;5.15;;;;;;;1.95;30.43;100607.82;4064311;86;21137;-85
2022/03/11 15:47:19;;;;;;;12.82;5.25;;;;;;;1.78;30.76;100602.52;4063619;86;21026;-85
2022/03/11 15:53:20;;;;;;;10.40;4.70;;;;;;;1.61;30.63;100599.62;4061952;86;21129;-85
2022/03/11 15:59:22;;;;;;;12.45;5.95;;;;;;;1.48;30.49;100599.42;4052405;86;21093;-85
2022/03/11 16:05:23;;;;;;;13.55;5.92;;;;;;;1.32;30.79;100597.86;4050059;86;21520;-85
2022/03/11 16:11:24;;;;;;;14.38;5.72;;;;;;;1.21;30.84;100593.58;4049330;86;21081;-86
2022/03/11 16:17:26;;;;;;;12.20;5.12;;;;;;;1.07;31.12;100591.20;4050037;87;21059;-84
2022/03/11 16:23:46;;;;;;;16.02;5.95;;;;;;;0.89;31.25;100593.14;4048633;88;21965;-85
2022/03/11 16:30:04;;;;;;;12.73;6.40;;;;;;;0.73;31.48;100594.25;4042616;88;21596;-85
2022/03/11 16:36:15;;;;;;;18.55;6.00;;;;;;;0.60;31.71;100605.56;4045169;86;21058;-85
2022/03/11 16:42:28;;;;;;;14.75;6.47;;;;;;;0.42;31.87;100598.86;4047792;88;20991;-84
2022/03/11 17:02:30;;;;;;;54.50;16.87;;;;;;;-0.15;32.23;100624.64;4064294;86;21085;-85
2022/03/11 17:15:07;;;;;;;46.92;20.65;;;;;;;-0.56;32.30;100639.02;4061706;86;21513;-84
2022/03/11 17:21:18;;;;;;;59.48;24.10;;;;;;;-0.74;32.60;100630.07;4062074;87;21034;-84
2022/03/11 17:27:19;;;;;;;99.55;22.73;;;;;;;-0.92;32.73;100629.67;4064293;86;21072;-83
2022/03/11 17:33:40;;;;;;;48.17;13.50;;;;;;;-1.05;32.84;100641.69;4062899;87;21045;-84
2022/03/11 17:40:21;;;;;;;54.00;15.00;;;;;;;-1.19;33.06;100638.39;4063505;86;21099;-84
2022/03/11 17:46:22;;;;;;;107.73;41.20;;;;;;;-1.31;33.19;100635.88;3962092;88;21234;-84
2022/03/11 18:13:06;;;;;;;45.47;14.77;;;;;;;-1.78;34.08;100633.08;4100784;86;21030;-84
2022/03/11 18:41:25;;;;;;;74.57;26.67;;;;;;;-2.20;35.19;100647.41;4043345;87;21388;-84
2022/03/11 18:47:39;;;;;;;74.10;29.27;;;;;;;-2.31;35.39;100645.15;4034209;88;21186;-84
2022/03/11 18:53:42;;;;;;;47.47;17.47;;;;;;;-2.40;35.71;100643.97;4035656;88;21084;-84
2022/03/11 18:59:57;;;;;;;48.60;17.80;;;;;;;-2.37;35.98;100650.70;4024715;87;21181;-84
2022/03/11 19:06:15;;;;;;;52.10;20.33;;;;;;;-2.39;36.15;100651.47;4016843;88;21186;-84
2022/03/11 19:12:19;;;;;;;55.37;23.10;;;;;;;-2.50;36.28;100651.06;3959609;89;21044;-84
2022/03/11 19:18:22;;;;;;;70.17;27.37;;;;;;;-2.69;36.15;100653.25;4035453;86;21038;-84
2022/03/11 19:24:31;;;;;;;86.27;30.17;;;;;;;-2.89;36.38;100666.90;4031278;86;21099;-84
2022/03/11 19:30:36;;;;;;;104.97;34.07;;;;;;;-3.07;36.50;100655.13;4031032;87;21074;-83
2022/03/11 19:36:38;;;;;;;102.67;34.33;;;;;;;-3.19;36.87;100665.14;4034379;86;21100;-83
2022/03/11 19:42:41;;;;;;;122.87;43.37;;;;;;;-3.28;37.12;100662.05;4031688;88;21022;-83
2022/03/11 19:48:43;;;;;;;133.53;45.60;;;;;;;-3.40;37.53;100659.99;4034549;86;21141;-84
2022/03/11 19:54:45;;;;;;;62.97;24.83;;;;;;;-3.46;37.81;100656.95;4031156;86;21184;-83
2022/03/11 20:00:55;;;;;;;52.13;21.87;;;;;;;-3.54;37.97;100658.69;4036321;86;21543;-82
2022/03/11 20:06:57;;;;;;;51.43;21.40;;;;;;;-3.58;38.31;100658.88;4032276;87;22210;-82
2022/03/11 20:13:02;;;;;;;44.00;19.83;;;;;;;-3.64;38.51;100663.86;4028264;87;20987;-82
2022/03/11 20:19:04;;;;;;;63.03;21.67;;;;;;;-3.71;38.49;100669.92;4035799;87;21637;-82
2022/03/11 20:25:08;;;;;;;52.87;21.60;;;;;;;-3.76;38.67;100674.63;4033048;87;21049;-82
2022/03/11 20:31:11;;;;;;;64.83;24.17;;;;;;;-3.83;38.75;100670.48;4036409;87;21903;-82
2022/03/11 20:37:12;;;;;;;84.47;37.23;;;;;;;-3.88;38.89;100674.40;4035141;87;21062;-83
2022/03/11 20:43:13;;;;;;;73.63;30.07;;;;;;;-3.92;39.15;100674.09;4033410;87;21017;-81
2022/03/11 20:49:16;;;;;;;82.77;34.50;;;;;;;-4.00;39.27;100669.64;4032891;87;21017;-81
2022/03/11 20:55:18;;;;;;;131.50;49.57;;;;;;;-4.04;39.61;100671.19;4030785;87;21074;-82
2022/03/11 21:01:23;;;;;;;145.30;49.50;;;;;;;-4.07;39.91;100656.95;4034670;87;21132;-82
2022/03/11 21:07:28;;;;;;;126.18;45.35;;;;;;;-4.26;40.01;100664.33;4044206;86;20997;-81
2022/03/11 21:13:30;;;;;;;122.33;45.07;;;;;;;-4.49;40.94;100663.63;4046788;87;21376;-81
2022/03/11 21:19:32;;;;;;;123.13;46.53;;;;;;;-4.60;41.16;100664.45;4045769;86;21161;-81
2022/03/11 21:25:35;;;;;;;118.40;44.73;;;;;;;-4.71;41.43;100654.61;4048108;86;21103;-81
2022/03/11 21:31:40;;;;;;;107.33;40.03;;;;;;;-4.82;41.39;100646.36;4049774;86;21056;-84
2022/03/11 21:37:42;;;;;;;102.17;40.53;;;;;;;-4.84;41.50;100643.66;4031950;86;22204;-81
2022/03/11 21:43:48;;;;;;;126.70;42.20;;;;;;;-4.77;41.90;100646.99;4056398;86;21095;-81
2022/03/11 21:49:50;;;;;;;134.97;43.33;;;;;;;-4.76;41.91;100639.25;4054053;86;21037;-81
2022/03/11 21:55:51;;;;;;;133.77;43.97;;;;;;;-4.78;42.24;100640.03;4056867;86;21154;-81
2022/03/11 22:02:07;;;;;;;115.57;43.70;;;;;;;-4.81;42.35;100643.18;4051645;86;21104;-81
2022/03/11 22:08:08;;;;;;;91.00;34.45;;;;;;;-5.12;42.48;100637.69;4051383;86;21062;-80
2022/03/11 22:14:13;;;;;;;127.77;46.33;;;;;;;-5.47;43.45;100636.06;4047794;86;21422;-81
2022/03/11 22:20:15;;;;;;;195.77;59.20;;;;;;;-5.74;43.86;100637.02;4048459;84;21026;-81
2022/03/11 22:26:18;;;;;;;204.70;61.43;;;;;;;-5.88;44.03;100634.30;4060542;83;21022;-81
2022/03/11 22:32:24;;;;;;;136.83;48.80;;;;;;;-5.93;44.29;100635.50;4053866;84;21092;-81
2022/03/11 22:38:22;;;;;;;145.83;53.47;;;;;;;-5.92;44.16;100637.12;4054571;86;21655;-81
2022/03/11 22:44:24;;;;;;;109.13;41.83;;;;;;;-5.91;43.60;100633.94;4055678;86;21014;-80
2022/03/11 22:50:31;;;;;;;105.83;38.67;;;;;;;-5.97;44.14;100642.34;4051433;86;21034;-80
2022/03/11 22:56:29;;;;;;;181.57;55.37;;;;;;;-6.04;44.51;100639.45;4049903;87;21052;-80
2022/03/11 23:15:12;;;;;;;109.03;38.43;;;;;;;-6.25;45.06;100641.31;4056638;87;21066;-78
2022/03/11 23:21:14;;;;;;;132.83;46.43;;;;;;;-6.27;44.50;100634.05;4058287;86;21088;-78
2022/03/11 23:27:16;;;;;;;108.73;37.73;;;;;;;-6.28;44.77;100631.93;4056320;86;21110;-78
2022/03/11 23:33:41;;;;;;;171.73;58.23;;;;;;;-6.25;45.38;100637.31;4054329;86;21040;-79
2022/03/11 23:39:43;;;;;;;151.55;46.65;;;;;;;-6.19;46.23;100639.89;4055374;86;21065;-79
2022/03/11 23:45:44;;;;;;;153.43;45.87;;;;;;;-6.17;46.51;100637.80;4051639;86;21659;-79
2022/03/11 23:51:46;;;;;;;102.90;37.67;;;;;;;-6.17;46.84;100639.67;4049852;86;21055;-80
2022/03/11 23:57:53;;;;;;;100.40;34.83;;;;;;;-6.25;46.89;100641.31;4050320;86;21481;-78
